createdAt,value
2024-02-02T00:04:58.887Z,63.01
2024-02-02T00:10:00.500Z,63.09
2024-02-02T00:15:05.675Z,62.50
2024-02-02T00:20:09.980Z,63.52
2024-02-02T00:25:11.639Z,63.88
2024-02-02T00:30:13.602Z,63.43
2024-02-02T00:35:15.335Z,64.68
2024-02-02T00:40:19.902Z,63.89
2024-02-02T00:45:22.818Z,63.99
2024-02-02T00:50:24.200Z,64.08
2024-02-02T00:55:25.744Z,64.53
2024-02-02T01:00:27.264Z,64.41
2024-02-02T01:05:32.334Z,64.31
2024-02-02T01:10:33.812Z,64.87
2024-02-02T01:15:38.265Z,65.37
2024-02-02T01:20:40.575Z,64.93
2024-02-02T01:25:42.191Z,64.93
2024-02-02T01:30:43.640Z,64.54
2024-02-02T01:35:45.369Z,65.09
2024-02-02T01:40:46.691Z,65.13
2024-02-02T01:45:47.998Z,65.55
2024-02-02T01:50:50.429Z,65.61
2024-02-02T01:55:52.090Z,66.21
2024-02-02T02:00:54.441Z,65.91
2024-02-02T02:05:56.303Z,65.29
2024-02-02T02:10:58.367Z,65.46
2024-02-02T02:16:00.080Z,66.02
2024-02-02T02:21:27.081Z,65.78
2024-02-02T02:26:29.506Z,66.29
2024-02-02T02:31:30.895Z,66.65
2024-02-02T02:36:34.834Z,67.05
2024-02-02T02:41:36.538Z,67.31
2024-02-02T02:46:38.229Z,67.26
2024-02-02T02:51:39.633Z,67.11
2024-02-02T02:56:43.907Z,66.76
2024-02-02T03:01:46.117Z,67.04
2024-02-02T03:06:47.922Z,67.24
2024-02-02T03:11:49.387Z,67.07
2024-02-02T03:16:50.707Z,67.53
2024-02-02T03:21:52.230Z,67.27
2024-02-02T03:26:53.593Z,68.17
2024-02-02T03:31:54.928Z,67.80
2024-02-02T03:36:56.421Z,67.60
2024-02-02T03:41:57.778Z,68.07
2024-02-02T03:46:59.398Z,67.99
2024-02-02T03:52:08.356Z,68.00
2024-02-02T03:57:10.511Z,68.30
2024-02-02T04:02:12.351Z,68.32
2024-02-02T04:07:13.689Z,68.91
2024-02-02T04:12:17.252Z,69.10
2024-02-02T04:17:18.837Z,69.97
2024-02-02T04:22:20.321Z,69.81
2024-02-02T04:27:22.461Z,70.15
2024-02-02T04:32:23.916Z,69.27
2024-02-02T04:37:25.250Z,69.65
2024-02-02T04:42:27.336Z,69.59
2024-02-02T04:47:28.996Z,69.91
2024-02-02T04:52:31.783Z,69.73
2024-02-02T04:57:33.235Z,70.10
2024-02-02T05:02:34.777Z,70.03
2024-02-02T05:07:36.982Z,70.66
2024-02-02T05:12:41.393Z,70.83
2024-02-02T05:17:45.434Z,70.69
2024-02-02T05:22:47.013Z,71.64
2024-02-02T05:27:48.583Z,71.85
2024-02-02T05:32:49.964Z,71.44
2024-02-02T05:37:53.302Z,71.73
2024-02-02T05:42:54.976Z,71.79
2024-02-02T05:47:56.515Z,72.09
2024-02-02T05:52:57.922Z,71.55
2024-02-02T05:57:59.971Z,72.02
2024-02-02T06:03:01.784Z,71.97
2024-02-02T06:08:03.939Z,71.91
2024-02-02T06:13:07.890Z,72.93
2024-02-02T06:18:09.716Z,72.79
2024-02-02T06:23:13.216Z,72.77
2024-02-02T06:28:15.793Z,73.51
2024-02-02T06:33:18.670Z,73.06
2024-02-02T06:38:21.993Z,72.92
2024-02-02T06:43:23.585Z,73.45
2024-02-02T06:48:25.831Z,73.53
2024-02-02T06:53:30.320Z,74.21
2024-02-02T06:58:46.529Z,74.46
2024-02-02T07:03:48.645Z,74.91
2024-02-02T07:08:53.235Z,74.55
2024-02-02T07:13:54.691Z,75.29
2024-02-02T07:18:56.767Z,74.90
2024-02-02T07:23:59.712Z,75.09
2024-02-02T07:29:06.913Z,75.49
2024-02-02T07:34:30.581Z,75.69
2024-02-02T07:39:32.544Z,75.02
2024-02-02T07:44:35.503Z,76.02
2024-02-02T07:49:37.289Z,76.08
2024-02-02T07:54:38.714Z,76.46
2024-02-02T07:59:40.126Z,76.55
2024-02-02T08:04:41.574Z,76.36
2024-02-02T08:09:43.220Z,76.15
2024-02-02T08:14:44.664Z,75.75
2024-02-02T08:19:46.474Z,75.75
2024-02-02T08:24:47.946Z,74.68
2024-02-02T08:29:49.787Z,75.02
2024-02-02T08:34:51.431Z,75.20
2024-02-02T08:39:54.013Z,75.30
2024-02-02T08:44:56.809Z,75.85
2024-02-02T08:50:02.195Z,76.45
2024-02-02T08:55:20.397Z,76.89
2024-02-02T09:00:41.335Z,77.04
2024-02-02T09:06:00.352Z,77.17
2024-02-02T09:11:03.753Z,77.78
2024-02-02T09:16:05.948Z,77.20
2024-02-02T09:21:08.978Z,77.41
2024-02-02T09:26:16.423Z,78.16
2024-02-02T09:31:23.691Z,78.34
2024-02-02T09:36:30.132Z,77.75
2024-02-02T09:41:52.644Z,75.68
2024-02-02T09:47:03.767Z,74.67
2024-02-02T09:52:20.186Z,74.18
2024-02-02T09:57:52.125Z,71.76
2024-02-02T10:03:19.033Z,70.94
2024-02-02T10:08:44.782Z,67.60
2024-02-02T10:14:05.118Z,68.48
2024-02-02T10:19:43.658Z,69.54
2024-02-02T10:24:51.893Z,69.53
2024-02-02T10:30:20.027Z,68.48
2024-02-02T10:35:48.415Z,66.09
2024-02-02T10:41:03.856Z,64.33
2024-02-02T10:46:30.440Z,63.12
2024-02-02T10:52:00.326Z,63.17
2024-02-02T10:57:27.943Z,63.45
2024-02-02T11:02:46.915Z,63.19
2024-02-02T11:08:03.510Z,61.58
2024-02-02T11:13:22.429Z,60.15
2024-02-02T11:18:54.327Z,57.41
2024-02-02T11:24:06.589Z,57.60
2024-02-02T11:29:19.696Z,56.72
2024-02-02T11:34:39.771Z,56.59
2024-02-02T11:39:57.812Z,55.98
2024-02-02T11:45:01.054Z,55.22
2024-02-02T11:50:07.846Z,53.93
2024-02-02T11:55:33.292Z,53.02
2024-02-02T12:00:56.527Z,52.23
2024-02-02T12:06:04.961Z,52.04
2024-02-02T12:11:11.724Z,50.78
2024-02-02T12:16:13.536Z,50.01
2024-02-02T12:21:16.780Z,50.47
2024-02-02T12:26:18.624Z,49.16
2024-02-02T12:31:20.093Z,48.79
2024-02-02T12:36:22.765Z,47.03
2024-02-02T12:41:24.939Z,44.31
2024-02-02T12:46:28.403Z,44.86
2024-02-02T12:51:30.646Z,45.48
2024-02-02T12:56:32.123Z,45.16
2024-02-02T13:01:34.245Z,45.40
2024-02-02T13:06:36.353Z,46.42
2024-02-02T13:11:43.612Z,46.76
2024-02-02T13:16:45.031Z,45.39
2024-02-02T13:21:46.985Z,45.23
2024-02-02T13:26:52.641Z,45.88
2024-02-02T13:31:54.199Z,45.83
2024-02-02T13:37:02.230Z,44.69
2024-02-02T13:42:06.303Z,43.72
2024-02-02T13:47:13.663Z,40.40
2024-02-02T13:52:15.270Z,42.74
2024-02-02T13:57:17.808Z,44.33
2024-02-02T14:02:20.979Z,45.36
2024-02-02T14:07:23.651Z,42.24
2024-02-02T14:12:25.313Z,40.48
2024-02-02T14:17:26.889Z,38.36
2024-02-02T14:22:28.687Z,35.70
2024-02-02T14:27:41.220Z,37.17
2024-02-02T14:32:42.852Z,39.88
2024-02-02T14:37:44.556Z,39.84
2024-02-02T14:42:46.203Z,39.78
2024-02-02T14:47:48.974Z,38.92
2024-02-02T14:52:50.606Z,36.92
2024-02-02T14:57:53.293Z,34.68
2024-02-02T15:02:55.256Z,33.27
2024-02-02T15:07:57.200Z,34.00
2024-02-02T15:12:58.724Z,35.04
2024-02-02T15:18:00.910Z,35.30
2024-02-02T15:23:02.625Z,36.89
2024-02-02T15:28:04.537Z,41.58
2024-02-02T15:33:05.995Z,44.36
2024-02-02T15:38:10.251Z,46.67
2024-02-02T15:43:14.190Z,47.85
2024-02-02T15:48:16.228Z,49.27
2024-02-02T15:53:19.270Z,50.46
2024-02-02T15:58:20.798Z,52.07
2024-02-02T16:03:22.539Z,53.91
2024-02-02T16:08:24.107Z,54.08
2024-02-02T16:13:25.491Z,54.45
2024-02-02T16:18:27.222Z,55.42
2024-02-02T16:23:28.766Z,56.42
2024-02-02T16:28:30.627Z,57.26
2024-02-02T16:33:32.062Z,58.05
2024-02-02T16:38:35.985Z,58.42
2024-02-02T16:43:39.967Z,59.18
2024-02-02T16:48:41.696Z,59.10
2024-02-02T16:53:43.233Z,60.34
2024-02-02T16:58:45.376Z,60.79
2024-02-02T17:03:46.887Z,61.29
2024-02-02T17:08:48.475Z,61.77
2024-02-02T17:13:50.109Z,61.83
2024-02-02T17:18:53.375Z,61.55
2024-02-02T17:23:55.159Z,61.87
2024-02-02T17:29:00.517Z,62.31
2024-02-02T17:34:08.989Z,61.89
2024-02-02T17:39:10.654Z,61.87
2024-02-02T17:44:13.407Z,61.91
2024-02-02T17:49:15.387Z,62.15
2024-02-02T17:54:16.834Z,62.66
2024-02-02T17:59:19.385Z,63.16
2024-02-02T18:04:21.056Z,63.71
2024-02-02T18:09:22.727Z,64.41
2024-02-02T18:14:27.687Z,65.04
2024-02-02T18:19:31.866Z,65.15
2024-02-02T18:24:33.953Z,65.40
2024-02-02T18:29:35.511Z,65.59
2024-02-02T18:34:37.767Z,65.82
2024-02-02T18:39:39.429Z,66.34
2024-02-02T18:44:41.139Z,66.83
2024-02-02T18:49:43.381Z,66.98
2024-02-02T18:54:44.950Z,67.61
2024-02-02T18:59:46.604Z,68.55
2024-02-02T19:04:48.150Z,69.35
2024-02-02T19:09:52.587Z,69.80
2024-02-02T19:14:54.418Z,70.47
2024-02-02T19:19:56.362Z,70.53
2024-02-02T19:24:59.898Z,71.04
2024-02-02T19:30:01.909Z,71.33
2024-02-02T19:35:03.686Z,71.56
2024-02-02T19:40:05.761Z,72.10
2024-02-02T19:45:07.275Z,71.93
2024-02-02T19:50:09.026Z,72.06
2024-02-02T19:55:10.374Z,72.76
2024-02-02T20:00:14.855Z,73.43
2024-02-02T20:05:16.777Z,73.77
2024-02-02T20:10:18.109Z,74.18
2024-02-02T20:15:19.598Z,75.61
2024-02-02T20:20:21.656Z,75.44
2024-02-02T20:25:23.088Z,75.48
2024-02-02T20:30:24.826Z,75.54
2024-02-02T20:35:27.096Z,75.25
2024-02-02T20:40:31.594Z,75.81
2024-02-02T20:45:33.086Z,75.05
2024-02-02T20:50:34.530Z,75.11
2024-02-02T20:55:36.013Z,74.81
2024-02-02T21:00:40.042Z,74.89
2024-02-02T21:05:41.723Z,74.62
2024-02-02T21:10:43.266Z,75.15
2024-02-02T21:15:45.319Z,75.21
2024-02-02T21:20:53.108Z,75.77
2024-02-02T21:25:56.886Z,75.96
2024-02-02T21:31:00.068Z,75.82
2024-02-02T21:36:04.230Z,75.50
2024-02-02T21:41:06.054Z,75.70
2024-02-02T21:46:07.622Z,75.78
2024-02-02T21:51:10.657Z,75.72
2024-02-02T21:56:12.139Z,76.27
2024-02-02T22:01:13.857Z,76.46
2024-02-02T22:06:16.097Z,76.33
2024-02-02T22:11:19.098Z,76.33
2024-02-02T22:16:20.753Z,76.36
2024-02-02T22:21:24.954Z,76.30
2024-02-02T22:26:26.385Z,76.24
2024-02-02T22:31:27.971Z,76.58
2024-02-02T22:36:29.368Z,77.26
2024-02-02T22:41:34.999Z,77.12
2024-02-02T22:46:36.874Z,77.46
2024-02-02T22:51:48.101Z,77.82
2024-02-02T22:56:49.499Z,78.19
2024-02-02T23:01:50.916Z,78.55
2024-02-02T23:06:52.382Z,78.48
2024-02-02T23:11:53.853Z,79.09
2024-02-02T23:16:55.490Z,79.24
2024-02-02T23:21:56.984Z,79.98
2024-02-02T23:26:59.606Z,80.36
2024-02-02T23:32:02.007Z,80.60
2024-02-02T23:37:03.770Z,80.55
2024-02-02T23:42:06.829Z,80.90
2024-02-02T23:47:08.493Z,81.42
2024-02-02T23:52:11.757Z,81.62
2024-02-02T23:57:14.592Z,81.45
